sensor_id;sensor_type;location;lat;lon;timestamp;temperature;humidity
34574;DHT22;20809;49.594;8.734;2023-05-10T00:02:19;13.10;99.90
34574;DHT22;20809;49.594;8.734;2023-05-10T00:05:19;13.10;99.90
34574;DHT22;20809;49.594;8.734;2023-05-10T00:08:20;13.10;99.90
34574;DHT22;20809;49.594;8.734;2023-05-10T00:11:21;13.00;99.90
34574;DHT22;20809;49.594;8.734;2023-05-10T00:14:21;13.10;99.90
34574;DHT22;20809;49.594;8.734;2023-05-10T00:17:22;13.10;99.90
34574;DHT22;20809;49.594;8.734;2023-05-10T00:20:22;13.10;99.90
34574;DHT22;20809;49.594;8.734;2023-05-10T00:23:23;13.10;99.90
34574;DHT22;20809;49.594;8.734;2023-05-10T00:26:24;13.10;99.90
34574;DHT22;20809;49.594;8.734;2023-05-10T00:29:24;13.10;99.90
34574;DHT22;20809;49.594;8.734;2023-05-10T00:32:25;13.10;99.90
34574;DHT22;20809;49.594;8.734;2023-05-10T00:35:25;13.20;99.90
34574;DHT22;20809;49.594;8.734;2023-05-10T00:38:26;13.20;99.90
34574;DHT22;20809;49.594;8.734;2023-05-10T00:41:27;13.10;99.90
34574;DHT22;20809;49.594;8.734;2023-05-10T00:44:28;13.10;99.90
34574;DHT22;20809;49.594;8.734;2023-05-10T00:47:29;13.00;99.90
34574;DHT22;20809;49.594;8.734;2023-05-10T00:50:30;13.00;99.90
34574;DHT22;20809;49.594;8.734;2023-05-10T00:53:31;13.00;99.90
34574;DHT22;20809;49.594;8.734;2023-05-10T00:59:10;13.00;99.90
34574;DHT22;20809;49.594;8.734;2023-05-10T01:02:12;13.00;99.90
34574;DHT22;20809;49.594;8.734;2023-05-10T01:05:18;13.00;99.90
34574;DHT22;20809;49.594;8.734;2023-05-10T01:08:21;12.90;99.90
34574;DHT22;20809;49.594;8.734;2023-05-10T01:11:23;13.00;99.90
34574;DHT22;20809;49.594;8.734;2023-05-10T01:14:26;13.00;99.90
34574;DHT22;20809;49.594;8.734;2023-05-10T01:17:27;13.00;99.90
34574;DHT22;20809;49.594;8.734;2023-05-10T01:20:34;13.00;99.90
34574;DHT22;20809;49.594;8.734;2023-05-10T01:30:28;13.00;99.90
34574;DHT22;20809;49.594;8.734;2023-05-10T01:34:16;13.00;99.90
34574;DHT22;20809;49.594;8.734;2023-05-10T01:37:23;13.00;99.90
34574;DHT22;20809;49.594;8.734;2023-05-10T01:44:29;13.10;99.90
34574;DHT22;20809;49.594;8.734;2023-05-10T01:47:41;13.20;99.90
34574;DHT22;20809;49.594;8.734;2023-05-10T01:54:33;13.20;99.90
34574;DHT22;20809;49.594;8.734;2023-05-10T01:57:43;13.20;99.90
34574;DHT22;20809;49.594;8.734;2023-05-10T02:00:57;13.20;99.90
34574;DHT22;20809;49.594;8.734;2023-05-10T02:08:06;13.00;99.90
34574;DHT22;20809;49.594;8.734;2023-05-10T02:11:08;13.10;99.90
34574;DHT22;20809;49.594;8.734;2023-05-10T02:14:29;13.10;99.90
34574;DHT22;20809;49.594;8.734;2023-05-10T02:17:46;13.10;99.90
34574;DHT22;20809;49.594;8.734;2023-05-10T02:20:58;13.10;99.90
34574;DHT22;20809;49.594;8.734;2023-05-10T02:24:16;13.10;99.90
34574;DHT22;20809;49.594;8.734;2023-05-10T02:27:22;13.10;99.90
34574;DHT22;20809;49.594;8.734;2023-05-10T02:30:37;13.00;99.90
34574;DHT22;20809;49.594;8.734;2023-05-10T02:33:40;13.00;99.90
34574;DHT22;20809;49.594;8.734;2023-05-10T02:36:42;13.00;99.90
34574;DHT22;20809;49.594;8.734;2023-05-10T02:39:48;13.00;99.90
34574;DHT22;20809;49.594;8.734;2023-05-10T02:42:56;13.10;99.90
34574;DHT22;20809;49.594;8.734;2023-05-10T02:46:05;13.00;99.90
34574;DHT22;20809;49.594;8.734;2023-05-10T02:49:17;13.00;99.90
34574;DHT22;20809;49.594;8.734;2023-05-10T02:52:34;13.00;99.90
34574;DHT22;20809;49.594;8.734;2023-05-10T02:55:41;13.00;99.90
34574;DHT22;20809;49.594;8.734;2023-05-10T02:58:51;13.00;99.90
34574;DHT22;20809;49.594;8.734;2023-05-10T03:01:58;13.00;99.90
34574;DHT22;20809;49.594;8.734;2023-05-10T03:05:05;12.90;99.90
34574;DHT22;20809;49.594;8.734;2023-05-10T03:08:14;12.90;99.90
34574;DHT22;20809;49.594;8.734;2023-05-10T03:18:15;12.90;99.90
34574;DHT22;20809;49.594;8.734;2023-05-10T03:21:28;12.80;99.90
34574;DHT22;20809;49.594;8.734;2023-05-10T03:24:37;12.80;99.90
34574;DHT22;20809;49.594;8.734;2023-05-10T03:27:47;12.70;99.90
34574;DHT22;20809;49.594;8.734;2023-05-10T03:30:54;12.70;99.90
34574;DHT22;20809;49.594;8.734;2023-05-10T03:34:02;12.80;99.90
34574;DHT22;20809;49.594;8.734;2023-05-10T03:37:24;12.80;99.90
34574;DHT22;20809;49.594;8.734;2023-05-10T03:40:49;12.80;99.90
34574;DHT22;20809;49.594;8.734;2023-05-10T03:43:59;12.80;99.90
34574;DHT22;20809;49.594;8.734;2023-05-10T03:47:07;12.80;99.90
34574;DHT22;20809;49.594;8.734;2023-05-10T03:50:14;12.80;99.90
34574;DHT22;20809;49.594;8.734;2023-05-10T03:53:26;12.80;99.90
34574;DHT22;20809;49.594;8.734;2023-05-10T03:56:43;12.80;99.90
34574;DHT22;20809;49.594;8.734;2023-05-10T03:59:50;12.90;99.90
34574;DHT22;20809;49.594;8.734;2023-05-10T04:02:54;12.90;99.90
34574;DHT22;20809;49.594;8.734;2023-05-10T04:06:03;12.80;99.90
34574;DHT22;20809;49.594;8.734;2023-05-10T04:09:13;12.80;99.90
34574;DHT22;20809;49.594;8.734;2023-05-10T04:12:25;12.90;99.90
34574;DHT22;20809;49.594;8.734;2023-05-10T04:15:32;12.80;99.90
34574;DHT22;20809;49.594;8.734;2023-05-10T04:18:40;12.90;99.90
34574;DHT22;20809;49.594;8.734;2023-05-10T04:21:50;12.90;99.90
34574;DHT22;20809;49.594;8.734;2023-05-10T04:25:00;12.90;99.90
34574;DHT22;20809;49.594;8.734;2023-05-10T04:28:10;12.90;99.90
34574;DHT22;20809;49.594;8.734;2023-05-10T04:31:18;12.90;99.90
34574;DHT22;20809;49.594;8.734;2023-05-10T04:34:37;12.90;99.90
34574;DHT22;20809;49.594;8.734;2023-05-10T04:37:54;12.90;99.90
34574;DHT22;20809;49.594;8.734;2023-05-10T04:41:13;12.90;99.90
34574;DHT22;20809;49.594;8.734;2023-05-10T04:44:53;12.90;99.90
34574;DHT22;20809;49.594;8.734;2023-05-10T04:48:13;12.90;99.90
34574;DHT22;20809;49.594;8.734;2023-05-10T04:51:33;13.00;99.90
34574;DHT22;20809;49.594;8.734;2023-05-10T04:54:54;13.00;99.90
34574;DHT22;20809;49.594;8.734;2023-05-10T04:58:52;13.10;99.90
34574;DHT22;20809;49.594;8.734;2023-05-10T05:02:42;13.10;99.90
34574;DHT22;20809;49.594;8.734;2023-05-10T05:05:46;13.10;99.90
34574;DHT22;20809;49.594;8.734;2023-05-10T05:09:02;13.20;99.90
34574;DHT22;20809;49.594;8.734;2023-05-10T05:12:33;13.20;99.90
34574;DHT22;20809;49.594;8.734;2023-05-10T05:15:45;13.20;99.90
34574;DHT22;20809;49.594;8.734;2023-05-10T05:19:05;13.20;99.90
34574;DHT22;20809;49.594;8.734;2023-05-10T05:22:30;13.30;99.90
34574;DHT22;20809;49.594;8.734;2023-05-10T05:25:40;13.30;99.90
34574;DHT22;20809;49.594;8.734;2023-05-10T05:29:12;13.30;99.90
34574;DHT22;20809;49.594;8.734;2023-05-10T05:32:44;13.40;99.90
34574;DHT22;20809;49.594;8.734;2023-05-10T05:36:15;13.50;99.90
34574;DHT22;20809;49.594;8.734;2023-05-10T05:39:38;13.70;99.90
34574;DHT22;20809;49.594;8.734;2023-05-10T05:42:52;14.00;99.90
34574;DHT22;20809;49.594;8.734;2023-05-10T05:46:24;14.30;99.90
34574;DHT22;20809;49.594;8.734;2023-05-10T05:49:39;14.30;99.90
34574;DHT22;20809;49.594;8.734;2023-05-10T05:52:50;14.30;99.90
34574;DHT22;20809;49.594;8.734;2023-05-10T05:56:03;14.20;99.90
34574;DHT22;20809;49.594;8.734;2023-05-10T05:59:26;14.10;99.90
34574;DHT22;20809;49.594;8.734;2023-05-10T06:02:42;14.10;99.90
34574;DHT22;20809;49.594;8.734;2023-05-10T06:06:16;14.10;99.90
34574;DHT22;20809;49.594;8.734;2023-05-10T06:09:41;14.20;99.90
34574;DHT22;20809;49.594;8.734;2023-05-10T06:12:49;14.40;99.90
34574;DHT22;20809;49.594;8.734;2023-05-10T06:16:11;14.40;99.90
34574;DHT22;20809;49.594;8.734;2023-05-10T06:19:40;14.20;99.90
34574;DHT22;20809;49.594;8.734;2023-05-10T06:22:51;14.20;99.90
34574;DHT22;20809;49.594;8.734;2023-05-10T06:25:58;14.10;99.90
34574;DHT22;20809;49.594;8.734;2023-05-10T06:32:38;13.90;99.90
34574;DHT22;20809;49.594;8.734;2023-05-10T06:35:44;13.90;99.90
34574;DHT22;20809;49.594;8.734;2023-05-10T06:38:55;14.10;99.90
34574;DHT22;20809;49.594;8.734;2023-05-10T06:42:04;14.40;99.90
34574;DHT22;20809;49.594;8.734;2023-05-10T06:45:16;14.80;99.90
34574;DHT22;20809;49.594;8.734;2023-05-10T06:48:23;14.90;99.90
34574;DHT22;20809;49.594;8.734;2023-05-10T06:51:33;15.20;99.90
34574;DHT22;20809;49.594;8.734;2023-05-10T06:54:42;15.30;99.90
34574;DHT22;20809;49.594;8.734;2023-05-10T06:57:49;15.50;99.90
34574;DHT22;20809;49.594;8.734;2023-05-10T07:00:54;15.80;99.90
34574;DHT22;20809;49.594;8.734;2023-05-10T07:04:03;16.00;99.90
34574;DHT22;20809;49.594;8.734;2023-05-10T07:07:13;16.10;99.90
34574;DHT22;20809;49.594;8.734;2023-05-10T07:10:20;16.20;99.90
34574;DHT22;20809;49.594;8.734;2023-05-10T07:13:30;16.50;99.90
34574;DHT22;20809;49.594;8.734;2023-05-10T07:16:56;16.60;99.90
34574;DHT22;20809;49.594;8.734;2023-05-10T07:20:34;16.60;99.90
34574;DHT22;20809;49.594;8.734;2023-05-10T07:23:48;16.60;99.90
34574;DHT22;20809;49.594;8.734;2023-05-10T07:27:01;16.60;99.90
34574;DHT22;20809;49.594;8.734;2023-05-10T07:30:23;16.60;99.90
34574;DHT22;20809;49.594;8.734;2023-05-10T07:33:38;16.60;99.90
34574;DHT22;20809;49.594;8.734;2023-05-10T07:36:51;16.80;99.90
34574;DHT22;20809;49.594;8.734;2023-05-10T07:40:19;16.80;99.90
34574;DHT22;20809;49.594;8.734;2023-05-10T07:43:35;16.70;99.90
34574;DHT22;20809;49.594;8.734;2023-05-10T07:46:44;16.90;99.90
34574;DHT22;20809;49.594;8.734;2023-05-10T07:49:56;17.10;99.90
34574;DHT22;20809;49.594;8.734;2023-05-10T07:56:56;18.10;99.90
34574;DHT22;20809;49.594;8.734;2023-05-10T08:00:36;18.70;99.90
34574;DHT22;20809;49.594;8.734;2023-05-10T08:03:47;19.30;99.90
34574;DHT22;20809;49.594;8.734;2023-05-10T08:07:02;18.90;99.90
34574;DHT22;20809;49.594;8.734;2023-05-10T08:10:20;18.40;99.90
34574;DHT22;20809;49.594;8.734;2023-05-10T08:13:34;18.50;99.90
34574;DHT22;20809;49.594;8.734;2023-05-10T08:16:43;18.70;99.90
34574;DHT22;20809;49.594;8.734;2023-05-10T08:20:10;19.10;99.90
34574;DHT22;20809;49.594;8.734;2023-05-10T08:23:58;19.00;99.90
34574;DHT22;20809;49.594;8.734;2023-05-10T08:27:38;18.20;99.90
34574;DHT22;20809;49.594;8.734;2023-05-10T08:34:48;17.60;99.90
34574;DHT22;20809;49.594;8.734;2023-05-10T08:38:04;17.60;99.90
34574;DHT22;20809;49.594;8.734;2023-05-10T08:41:10;17.70;99.90
34574;DHT22;20809;49.594;8.734;2023-05-10T08:44:28;17.80;99.90
34574;DHT22;20809;49.594;8.734;2023-05-10T08:47:40;17.80;99.90
34574;DHT22;20809;49.594;8.734;2023-05-10T08:50:53;18.00;99.90
34574;DHT22;20809;49.594;8.734;2023-05-10T08:54:05;18.10;99.90
34574;DHT22;20809;49.594;8.734;2023-05-10T08:57:13;17.90;99.90
34574;DHT22;20809;49.594;8.734;2023-05-10T09:00:18;18.30;99.90
34574;DHT22;20809;49.594;8.734;2023-05-10T09:03:24;18.80;99.90
34574;DHT22;20809;49.594;8.734;2023-05-10T09:06:31;19.30;99.90
34574;DHT22;20809;49.594;8.734;2023-05-10T09:09:37;19.90;99.90
34574;DHT22;20809;49.594;8.734;2023-05-10T09:12:42;20.00;99.90
34574;DHT22;20809;49.594;8.734;2023-05-10T09:15:47;20.10;99.90
34574;DHT22;20809;49.594;8.734;2023-05-10T09:18:51;20.30;99.90
34574;DHT22;20809;49.594;8.734;2023-05-10T09:21:54;20.60;99.90
34574;DHT22;20809;49.594;8.734;2023-05-10T09:25:12;21.20;99.90
34574;DHT22;20809;49.594;8.734;2023-05-10T09:28:18;21.60;99.90
34574;DHT22;20809;49.594;8.734;2023-05-10T09:31:58;21.30;99.90
34574;DHT22;20809;49.594;8.734;2023-05-10T09:35:22;20.90;99.90
34574;DHT22;20809;49.594;8.734;2023-05-10T09:38:28;20.10;99.90
34574;DHT22;20809;49.594;8.734;2023-05-10T09:42:05;19.20;99.90
34574;DHT22;20809;49.594;8.734;2023-05-10T09:45:28;17.80;99.90
34574;DHT22;20809;49.594;8.734;2023-05-10T09:49:04;16.50;99.90
34574;DHT22;20809;49.594;8.734;2023-05-10T09:52:16;15.40;99.90
34574;DHT22;20809;49.594;8.734;2023-05-10T09:55:49;14.90;99.90
34574;DHT22;20809;49.594;8.734;2023-05-10T09:59:04;14.70;99.90
34574;DHT22;20809;49.594;8.734;2023-05-10T10:02:42;14.50;99.90
34574;DHT22;20809;49.594;8.734;2023-05-10T10:10:24;14.60;99.90
34574;DHT22;20809;49.594;8.734;2023-05-10T10:14:09;15.10;99.90
34574;DHT22;20809;49.594;8.734;2023-05-10T10:17:49;16.00;99.90
34574;DHT22;20809;49.594;8.734;2023-05-10T10:21:00;17.10;99.90
34574;DHT22;20809;49.594;8.734;2023-05-10T10:24:01;18.20;99.90
34574;DHT22;20809;49.594;8.734;2023-05-10T10:27:15;19.00;99.90
34574;DHT22;20809;49.594;8.734;2023-05-10T10:30:29;19.40;99.90
34574;DHT22;20809;49.594;8.734;2023-05-10T10:45:38;15.70;99.90
34574;DHT22;20809;49.594;8.734;2023-05-10T10:49:09;14.80;99.90
34574;DHT22;20809;49.594;8.734;2023-05-10T10:56:04;14.10;99.90
34574;DHT22;20809;49.594;8.734;2023-05-10T10:59:07;13.90;99.90
34574;DHT22;20809;49.594;8.734;2023-05-10T11:02:08;14.10;99.90
34574;DHT22;20809;49.594;8.734;2023-05-10T11:12:08;16.10;99.90
34574;DHT22;20809;49.594;8.734;2023-05-10T11:18:41;18.30;99.90
34574;DHT22;20809;49.594;8.734;2023-05-10T11:22:12;18.70;99.90
34574;DHT22;20809;49.594;8.734;2023-05-10T11:25:13;18.90;99.90
34574;DHT22;20809;49.594;8.734;2023-05-10T11:28:16;18.70;99.90
34574;DHT22;20809;49.594;8.734;2023-05-10T11:31:18;18.80;99.90
34574;DHT22;20809;49.594;8.734;2023-05-10T11:34:26;18.80;99.90
34574;DHT22;20809;49.594;8.734;2023-05-10T11:37:28;19.10;99.90
34574;DHT22;20809;49.594;8.734;2023-05-10T11:40:32;19.60;99.90
34574;DHT22;20809;49.594;8.734;2023-05-10T11:43:33;20.10;99.90
34574;DHT22;20809;49.594;8.734;2023-05-10T11:46:33;20.30;99.90
34574;DHT22;20809;49.594;8.734;2023-05-10T11:49:34;20.70;99.90
34574;DHT22;20809;49.594;8.734;2023-05-10T11:52:38;20.90;99.90
34574;DHT22;20809;49.594;8.734;2023-05-10T11:55:38;21.30;99.90
34574;DHT22;20809;49.594;8.734;2023-05-10T11:58:39;21.40;99.90
34574;DHT22;20809;49.594;8.734;2023-05-10T12:01:41;21.10;99.90
34574;DHT22;20809;49.594;8.734;2023-05-10T12:04:42;20.40;99.90
34574;DHT22;20809;49.594;8.734;2023-05-10T12:07:43;19.70;99.90
34574;DHT22;20809;49.594;8.734;2023-05-10T12:10:43;19.10;99.90
34574;DHT22;20809;49.594;8.734;2023-05-10T12:13:44;18.60;99.90
34574;DHT22;20809;49.594;8.734;2023-05-10T12:16:48;18.10;99.90
34574;DHT22;20809;49.594;8.734;2023-05-10T12:19:48;17.60;99.90
34574;DHT22;20809;49.594;8.734;2023-05-10T12:22:54;17.60;99.90
34574;DHT22;20809;49.594;8.734;2023-05-10T12:26:02;17.60;99.90
34574;DHT22;20809;49.594;8.734;2023-05-10T12:29:16;18.00;99.90
34574;DHT22;20809;49.594;8.734;2023-05-10T12:32:17;18.70;99.90
34574;DHT22;20809;49.594;8.734;2023-05-10T12:35:18;19.50;99.90
34574;DHT22;20809;49.594;8.734;2023-05-10T12:38:25;20.20;99.90
34574;DHT22;20809;49.594;8.734;2023-05-10T12:41:27;20.60;99.90
34574;DHT22;20809;49.594;8.734;2023-05-10T12:44:28;21.20;99.90
34574;DHT22;20809;49.594;8.734;2023-05-10T12:47:28;21.10;99.90
34574;DHT22;20809;49.594;8.734;2023-05-10T12:50:29;21.40;99.90
34574;DHT22;20809;49.594;8.734;2023-05-10T12:53:30;21.40;99.90
34574;DHT22;20809;49.594;8.734;2023-05-10T12:56:31;21.70;99.90
34574;DHT22;20809;49.594;8.734;2023-05-10T12:59:31;21.80;99.90
34574;DHT22;20809;49.594;8.734;2023-05-10T13:02:32;21.10;99.90
34574;DHT22;20809;49.594;8.734;2023-05-10T13:05:33;21.00;99.90
34574;DHT22;20809;49.594;8.734;2023-05-10T13:08:33;20.70;99.90
34574;DHT22;20809;49.594;8.734;2023-05-10T13:11:34;20.40;99.90
34574;DHT22;20809;49.594;8.734;2023-05-10T13:14:35;19.70;99.90
34574;DHT22;20809;49.594;8.734;2023-05-10T13:17:36;19.30;99.90
34574;DHT22;20809;49.594;8.734;2023-05-10T13:20:39;19.50;99.90
34574;DHT22;20809;49.594;8.734;2023-05-10T13:23:39;19.80;99.90
34574;DHT22;20809;49.594;8.734;2023-05-10T13:26:40;20.20;99.90
34574;DHT22;20809;49.594;8.734;2023-05-10T13:29:41;20.50;99.90
34574;DHT22;20809;49.594;8.734;2023-05-10T13:32:41;20.70;99.90
34574;DHT22;20809;49.594;8.734;2023-05-10T13:35:42;20.50;99.90
34574;DHT22;20809;49.594;8.734;2023-05-10T13:38:43;20.30;99.90
34574;DHT22;20809;49.594;8.734;2023-05-10T13:41:43;20.10;99.90
34574;DHT22;20809;49.594;8.734;2023-05-10T13:44:44;20.30;99.90
34574;DHT22;20809;49.594;8.734;2023-05-10T13:47:44;20.30;99.90
34574;DHT22;20809;49.594;8.734;2023-05-10T13:50:45;20.10;99.90
34574;DHT22;20809;49.594;8.734;2023-05-10T13:53:46;19.90;99.90
34574;DHT22;20809;49.594;8.734;2023-05-10T13:56:47;19.70;99.90
34574;DHT22;20809;49.594;8.734;2023-05-10T13:59:48;19.70;99.90
34574;DHT22;20809;49.594;8.734;2023-05-10T14:03:05;19.90;99.90
34574;DHT22;20809;49.594;8.734;2023-05-10T14:06:09;20.40;99.90
34574;DHT22;20809;49.594;8.734;2023-05-10T14:09:10;20.60;99.90
34574;DHT22;20809;49.594;8.734;2023-05-10T14:12:10;20.90;99.90
34574;DHT22;20809;49.594;8.734;2023-05-10T14:15:11;20.80;99.90
34574;DHT22;20809;49.594;8.734;2023-05-10T14:18:12;20.40;99.90
34574;DHT22;20809;49.594;8.734;2023-05-10T14:21:13;20.20;99.90
34574;DHT22;20809;49.594;8.734;2023-05-10T14:24:13;20.00;99.90
34574;DHT22;20809;49.594;8.734;2023-05-10T14:27:14;20.10;99.90
34574;DHT22;20809;49.594;8.734;2023-05-10T14:30:15;20.20;99.90
34574;DHT22;20809;49.594;8.734;2023-05-10T14:33:17;20.20;99.90
34574;DHT22;20809;49.594;8.734;2023-05-10T14:36:18;20.30;99.90
34574;DHT22;20809;49.594;8.734;2023-05-10T14:39:20;20.60;99.90
34574;DHT22;20809;49.594;8.734;2023-05-10T14:42:26;20.70;99.90
34574;DHT22;20809;49.594;8.734;2023-05-10T14:45:34;20.80;99.90
34574;DHT22;20809;49.594;8.734;2023-05-10T14:48:35;20.80;99.90
34574;DHT22;20809;49.594;8.734;2023-05-10T14:51:36;20.50;99.90
34574;DHT22;20809;49.594;8.734;2023-05-10T14:54:37;20.20;99.90
34574;DHT22;20809;49.594;8.734;2023-05-10T14:57:51;20.00;99.90
34574;DHT22;20809;49.594;8.734;2023-05-10T15:00:59;20.00;99.90
34574;DHT22;20809;49.594;8.734;2023-05-10T15:04:01;20.20;99.90
34574;DHT22;20809;49.594;8.734;2023-05-10T15:07:01;20.00;99.90
34574;DHT22;20809;49.594;8.734;2023-05-10T15:10:02;20.20;99.90
34574;DHT22;20809;49.594;8.734;2023-05-10T15:13:03;20.20;99.90
34574;DHT22;20809;49.594;8.734;2023-05-10T15:16:04;20.30;99.90
34574;DHT22;20809;49.594;8.734;2023-05-10T15:19:05;20.50;99.90
34574;DHT22;20809;49.594;8.734;2023-05-10T15:22:05;20.70;99.90
34574;DHT22;20809;49.594;8.734;2023-05-10T15:25:06;20.70;99.90
34574;DHT22;20809;49.594;8.734;2023-05-10T15:28:07;20.60;99.90
34574;DHT22;20809;49.594;8.734;2023-05-10T15:31:08;20.60;99.90
34574;DHT22;20809;49.594;8.734;2023-05-10T15:34:08;20.80;99.90
34574;DHT22;20809;49.594;8.734;2023-05-10T15:37:09;20.70;99.90
34574;DHT22;20809;49.594;8.734;2023-05-10T15:40:10;20.60;99.90
34574;DHT22;20809;49.594;8.734;2023-05-10T15:43:11;20.20;99.90
34574;DHT22;20809;49.594;8.734;2023-05-10T15:46:12;19.70;99.90
34574;DHT22;20809;49.594;8.734;2023-05-10T15:49:12;19.40;99.90
34574;DHT22;20809;49.594;8.734;2023-05-10T15:52:13;19.20;99.90
34574;DHT22;20809;49.594;8.734;2023-05-10T15:55:14;19.30;99.90
34574;DHT22;20809;49.594;8.734;2023-05-10T15:58:16;19.60;99.90
34574;DHT22;20809;49.594;8.734;2023-05-10T16:01:16;19.90;99.90
34574;DHT22;20809;49.594;8.734;2023-05-10T16:04:17;20.00;99.90
34574;DHT22;20809;49.594;8.734;2023-05-10T16:07:18;20.10;99.90
34574;DHT22;20809;49.594;8.734;2023-05-10T16:10:18;20.20;99.90
34574;DHT22;20809;49.594;8.734;2023-05-10T16:13:22;20.40;99.90
34574;DHT22;20809;49.594;8.734;2023-05-10T16:16:23;20.60;99.90
34574;DHT22;20809;49.594;8.734;2023-05-10T16:19:26;20.70;99.90
34574;DHT22;20809;49.594;8.734;2023-05-10T16:22:27;20.70;99.90
34574;DHT22;20809;49.594;8.734;2023-05-10T16:25:28;20.70;99.90
34574;DHT22;20809;49.594;8.734;2023-05-10T16:28:28;20.70;99.90
34574;DHT22;20809;49.594;8.734;2023-05-10T16:31:29;20.80;99.90
34574;DHT22;20809;49.594;8.734;2023-05-10T16:34:30;21.00;99.90
34574;DHT22;20809;49.594;8.734;2023-05-10T16:37:30;21.10;99.90
34574;DHT22;20809;49.594;8.734;2023-05-10T16:40:31;21.30;99.90
34574;DHT22;20809;49.594;8.734;2023-05-10T16:43:32;21.40;99.90
34574;DHT22;20809;49.594;8.734;2023-05-10T16:46:36;21.20;99.90
34574;DHT22;20809;49.594;8.734;2023-05-10T16:49:43;21.20;99.90
34574;DHT22;20809;49.594;8.734;2023-05-10T16:52:44;20.90;99.90
34574;DHT22;20809;49.594;8.734;2023-05-10T16:55:45;20.80;99.90
34574;DHT22;20809;49.594;8.734;2023-05-10T16:58:46;20.60;99.90
34574;DHT22;20809;49.594;8.734;2023-05-10T17:01:50;20.60;99.90
34574;DHT22;20809;49.594;8.734;2023-05-10T17:04:52;20.80;99.90
34574;DHT22;20809;49.594;8.734;2023-05-10T17:07:57;21.00;99.90
34574;DHT22;20809;49.594;8.734;2023-05-10T17:11:00;21.20;99.90
34574;DHT22;20809;49.594;8.734;2023-05-10T17:14:02;21.20;99.90
34574;DHT22;20809;49.594;8.734;2023-05-10T17:17:03;20.90;99.90
34574;DHT22;20809;49.594;8.734;2023-05-10T17:20:05;20.70;99.90
34574;DHT22;20809;49.594;8.734;2023-05-10T17:23:06;20.50;99.90
34574;DHT22;20809;49.594;8.734;2023-05-10T17:26:07;20.40;99.90
34574;DHT22;20809;49.594;8.734;2023-05-10T17:29:08;20.40;99.90
34574;DHT22;20809;49.594;8.734;2023-05-10T17:32:08;20.20;99.90
34574;DHT22;20809;49.594;8.734;2023-05-10T17:35:09;20.00;99.90
34574;DHT22;20809;49.594;8.734;2023-05-10T17:38:10;19.60;99.90
34574;DHT22;20809;49.594;8.734;2023-05-10T17:41:11;19.20;99.90
34574;DHT22;20809;49.594;8.734;2023-05-10T17:44:11;18.80;99.90
34574;DHT22;20809;49.594;8.734;2023-05-10T17:47:12;18.40;99.90
34574;DHT22;20809;49.594;8.734;2023-05-10T17:50:13;18.10;99.90
34574;DHT22;20809;49.594;8.734;2023-05-10T17:53:14;17.90;99.90
34574;DHT22;20809;49.594;8.734;2023-05-10T17:56:14;17.60;99.90
34574;DHT22;20809;49.594;8.734;2023-05-10T17:59:15;17.50;99.90
34574;DHT22;20809;49.594;8.734;2023-05-10T18:02:18;17.30;99.90
34574;DHT22;20809;49.594;8.734;2023-05-10T18:05:18;17.20;99.90
34574;DHT22;20809;49.594;8.734;2023-05-10T18:08:22;17.10;99.90
34574;DHT22;20809;49.594;8.734;2023-05-10T18:11:26;17.10;99.90
34574;DHT22;20809;49.594;8.734;2023-05-10T18:14:26;17.00;99.90
34574;DHT22;20809;49.594;8.734;2023-05-10T18:17:27;17.00;99.90
34574;DHT22;20809;49.594;8.734;2023-05-10T18:20:29;16.90;99.90
34574;DHT22;20809;49.594;8.734;2023-05-10T18:23:30;16.90;99.90
34574;DHT22;20809;49.594;8.734;2023-05-10T18:26:30;16.80;99.90
34574;DHT22;20809;49.594;8.734;2023-05-10T18:29:31;16.80;99.90
34574;DHT22;20809;49.594;8.734;2023-05-10T18:32:32;16.60;99.90
34574;DHT22;20809;49.594;8.734;2023-05-10T18:35:33;16.50;99.90
34574;DHT22;20809;49.594;8.734;2023-05-10T18:38:36;16.30;99.90
34574;DHT22;20809;49.594;8.734;2023-05-10T18:41:37;16.20;99.90
34574;DHT22;20809;49.594;8.734;2023-05-10T18:44:37;16.10;99.90
34574;DHT22;20809;49.594;8.734;2023-05-10T18:47:38;16.10;99.90
34574;DHT22;20809;49.594;8.734;2023-05-10T18:50:39;15.90;99.90
34574;DHT22;20809;49.594;8.734;2023-05-10T18:53:39;15.70;99.90
34574;DHT22;20809;49.594;8.734;2023-05-10T18:56:40;15.60;99.90
34574;DHT22;20809;49.594;8.734;2023-05-10T18:59:44;15.50;99.90
34574;DHT22;20809;49.594;8.734;2023-05-10T19:02:45;15.40;99.90
34574;DHT22;20809;49.594;8.734;2023-05-10T19:05:46;15.30;99.90
34574;DHT22;20809;49.594;8.734;2023-05-10T19:08:49;15.20;99.90
34574;DHT22;20809;49.594;8.734;2023-05-10T19:11:50;15.20;99.90
34574;DHT22;20809;49.594;8.734;2023-05-10T19:14:51;15.20;99.90
34574;DHT22;20809;49.594;8.734;2023-05-10T19:17:51;15.10;99.90
34574;DHT22;20809;49.594;8.734;2023-05-10T19:20:53;15.10;99.90
34574;DHT22;20809;49.594;8.734;2023-05-10T19:23:55;15.10;99.90
34574;DHT22;20809;49.594;8.734;2023-05-10T19:26:56;15.10;99.90
34574;DHT22;20809;49.594;8.734;2023-05-10T19:29:57;15.00;99.90
34574;DHT22;20809;49.594;8.734;2023-05-10T19:32:58;15.00;99.90
34574;DHT22;20809;49.594;8.734;2023-05-10T19:35:59;15.00;99.90
34574;DHT22;20809;49.594;8.734;2023-05-10T19:38:59;14.90;99.90
34574;DHT22;20809;49.594;8.734;2023-05-10T19:42:00;14.80;99.90
34574;DHT22;20809;49.594;8.734;2023-05-10T19:45:01;14.70;99.90
34574;DHT22;20809;49.594;8.734;2023-05-10T19:48:01;14.60;99.90
34574;DHT22;20809;49.594;8.734;2023-05-10T19:51:03;14.60;99.90
34574;DHT22;20809;49.594;8.734;2023-05-10T19:54:04;14.40;99.90
34574;DHT22;20809;49.594;8.734;2023-05-10T19:57:05;14.40;99.90
34574;DHT22;20809;49.594;8.734;2023-05-10T20:00:06;14.20;99.90
34574;DHT22;20809;49.594;8.734;2023-05-10T20:03:07;14.20;99.90
34574;DHT22;20809;49.594;8.734;2023-05-10T20:06:07;14.20;99.90
34574;DHT22;20809;49.594;8.734;2023-05-10T20:09:08;14.30;99.90
34574;DHT22;20809;49.594;8.734;2023-05-10T20:12:09;14.20;99.90
34574;DHT22;20809;49.594;8.734;2023-05-10T20:15:10;14.20;99.90
34574;DHT22;20809;49.594;8.734;2023-05-10T20:18:11;14.10;99.90
34574;DHT22;20809;49.594;8.734;2023-05-10T20:21:11;14.10;99.90
34574;DHT22;20809;49.594;8.734;2023-05-10T20:24:12;14.10;99.90
34574;DHT22;20809;49.594;8.734;2023-05-10T20:27:13;14.00;99.90
34574;DHT22;20809;49.594;8.734;2023-05-10T20:30:13;13.90;99.90
34574;DHT22;20809;49.594;8.734;2023-05-10T20:33:14;13.80;99.90
34574;DHT22;20809;49.594;8.734;2023-05-10T20:36:15;13.70;99.90
34574;DHT22;20809;49.594;8.734;2023-05-10T20:39:16;13.60;99.90
34574;DHT22;20809;49.594;8.734;2023-05-10T20:42:16;13.50;99.90
34574;DHT22;20809;49.594;8.734;2023-05-10T20:45:17;13.50;99.90
34574;DHT22;20809;49.594;8.734;2023-05-10T20:48:18;13.40;99.90
34574;DHT22;20809;49.594;8.734;2023-05-10T20:51:18;13.40;99.90
34574;DHT22;20809;49.594;8.734;2023-05-10T20:54:20;13.40;99.90